sensor_id;sensor_type;location;lat;lon;timestamp;P1;durP1;ratioP1;P2;durP2;ratioP2
54743;SDS011;40639;53.170;6.728;2023-03-01T00:00:52;290.08;;;17.15;;
54743;SDS011;40639;53.170;6.728;2023-03-01T00:03:18;189.85;;;13.68;;
54743;SDS011;40639;53.170;6.728;2023-03-01T00:08:10;144.30;;;12.93;;
54743;SDS011;40639;53.170;6.728;2023-03-01T00:10:37;43.38;;;8.63;;
54743;SDS011;40639;53.170;6.728;2023-03-01T00:13:03;129.98;;;12.00;;
54743;SDS011;40639;53.170;6.728;2023-03-01T00:15:30;80.90;;;11.00;;
54743;SDS011;40639;53.170;6.728;2023-03-01T00:17:57;39.60;;;9.10;;
54743;SDS011;40639;53.170;6.728;2023-03-01T00:20:23;11.48;;;7.32;;
54743;SDS011;40639;53.170;6.728;2023-03-01T00:22:49;10.45;;;7.03;;
54743;SDS011;40639;53.170;6.728;2023-03-01T00:25:16;20.65;;;8.60;;
54743;SDS011;40639;53.170;6.728;2023-03-01T00:27:42;68.38;;;10.07;;
54743;SDS011;40639;53.170;6.728;2023-03-01T00:30:08;32.13;;;9.93;;
54743;SDS011;40639;53.170;6.728;2023-03-01T00:32:35;26.65;;;8.65;;
54743;SDS011;40639;53.170;6.728;2023-03-01T00:35:01;18.85;;;7.50;;
54743;SDS011;40639;53.170;6.728;2023-03-01T00:37:28;11.25;;;7.00;;
54743;SDS011;40639;53.170;6.728;2023-03-01T00:39:54;11.00;;;6.80;;
54743;SDS011;40639;53.170;6.728;2023-03-01T00:42:20;10.77;;;6.95;;
54743;SDS011;40639;53.170;6.728;2023-03-01T00:44:47;12.88;;;7.53;;
54743;SDS011;40639;53.170;6.728;2023-03-01T00:47:13;15.55;;;7.90;;
54743;SDS011;40639;53.170;6.728;2023-03-01T00:49:40;12.55;;;7.15;;
54743;SDS011;40639;53.170;6.728;2023-03-01T00:52:06;11.82;;;7.05;;
54743;SDS011;40639;53.170;6.728;2023-03-01T00:54:32;11.75;;;7.65;;
54743;SDS011;40639;53.170;6.728;2023-03-01T00:56:58;12.77;;;7.55;;
54743;SDS011;40639;53.170;6.728;2023-03-01T00:59:25;12.70;;;7.80;;
54743;SDS011;40639;53.170;6.728;2023-03-01T01:01:51;12.20;;;7.32;;
54743;SDS011;40639;53.170;6.728;2023-03-01T01:04:17;12.30;;;6.80;;
54743;SDS011;40639;53.170;6.728;2023-03-01T01:06:44;12.32;;;6.97;;
54743;SDS011;40639;53.170;6.728;2023-03-01T01:09:11;11.60;;;6.95;;
54743;SDS011;40639;53.170;6.728;2023-03-01T01:11:42;14.88;;;7.68;;
54743;SDS011;40639;53.170;6.728;2023-03-01T01:14:09;11.20;;;6.80;;
54743;SDS011;40639;53.170;6.728;2023-03-01T01:16:35;11.60;;;7.07;;
54743;SDS011;40639;53.170;6.728;2023-03-01T01:19:02;10.88;;;6.88;;
54743;SDS011;40639;53.170;6.728;2023-03-01T01:21:28;11.07;;;6.90;;
54743;SDS011;40639;53.170;6.728;2023-03-01T01:23:54;9.55;;;6.03;;
54743;SDS011;40639;53.170;6.728;2023-03-01T01:26:28;18.92;;;5.97;;
54743;SDS011;40639;53.170;6.728;2023-03-01T01:28:54;18.42;;;6.70;;
54743;SDS011;40639;53.170;6.728;2023-03-01T01:31:22;22.27;;;6.80;;
54743;SDS011;40639;53.170;6.728;2023-03-01T01:33:49;11.55;;;5.85;;
54743;SDS011;40639;53.170;6.728;2023-03-01T01:36:15;11.52;;;6.78;;
54743;SDS011;40639;53.170;6.728;2023-03-01T01:38:42;20.58;;;7.35;;
54743;SDS011;40639;53.170;6.728;2023-03-01T01:41:09;77.63;;;11.18;;
54743;SDS011;40639;53.170;6.728;2023-03-01T01:43:39;18.67;;;7.90;;
54743;SDS011;40639;53.170;6.728;2023-03-01T01:48:44;10.90;;;7.20;;
54743;SDS011;40639;53.170;6.728;2023-03-01T01:51:15;146.02;;;13.23;;
54743;SDS011;40639;53.170;6.728;2023-03-01T01:53:43;174.15;;;15.73;;
54743;SDS011;40639;53.170;6.728;2023-03-01T01:56:10;145.18;;;13.23;;
54743;SDS011;40639;53.170;6.728;2023-03-01T01:58:39;188.98;;;15.00;;
54743;SDS011;40639;53.170;6.728;2023-03-01T02:01:06;134.60;;;13.57;;
54743;SDS011;40639;53.170;6.728;2023-03-01T02:03:33;60.33;;;10.73;;
54743;SDS011;40639;53.170;6.728;2023-03-01T02:08:38;14.48;;;7.28;;
54743;SDS011;40639;53.170;6.728;2023-03-01T02:11:04;123.38;;;12.65;;
54743;SDS011;40639;53.170;6.728;2023-03-01T02:13:31;126.93;;;11.93;;
54743;SDS011;40639;53.170;6.728;2023-03-01T02:15:58;188.80;;;14.48;;
54743;SDS011;40639;53.170;6.728;2023-03-01T02:18:25;119.45;;;13.05;;
54743;SDS011;40639;53.170;6.728;2023-03-01T02:21:13;146.77;;;14.75;;
54743;SDS011;40639;53.170;6.728;2023-03-01T02:23:41;107.50;;;12.63;;
54743;SDS011;40639;53.170;6.728;2023-03-01T02:28:38;154.38;;;14.82;;
54743;SDS011;40639;53.170;6.728;2023-03-01T02:31:06;169.85;;;16.70;;
54743;SDS011;40639;53.170;6.728;2023-03-01T02:33:52;215.23;;;17.00;;
54743;SDS011;40639;53.170;6.728;2023-03-01T02:36:19;192.48;;;14.77;;
54743;SDS011;40639;53.170;6.728;2023-03-01T02:38:48;236.02;;;17.50;;
54743;SDS011;40639;53.170;6.728;2023-03-01T02:41:16;242.48;;;16.63;;
54743;SDS011;40639;53.170;6.728;2023-03-01T02:43:43;69.53;;;10.85;;
54743;SDS011;40639;53.170;6.728;2023-03-01T02:46:17;93.95;;;11.27;;
54743;SDS011;40639;53.170;6.728;2023-03-01T02:48:54;46.95;;;8.32;;
54743;SDS011;40639;53.170;6.728;2023-03-01T02:56:19;36.42;;;7.82;;
54743;SDS011;40639;53.170;6.728;2023-03-01T02:58:45;55.88;;;8.20;;
54743;SDS011;40639;53.170;6.728;2023-03-01T03:01:16;184.43;;;14.63;;
54743;SDS011;40639;53.170;6.728;2023-03-01T03:03:42;156.88;;;12.88;;
54743;SDS011;40639;53.170;6.728;2023-03-01T03:06:08;143.82;;;12.43;;
54743;SDS011;40639;53.170;6.728;2023-03-01T03:08:34;150.93;;;13.20;;
54743;SDS011;40639;53.170;6.728;2023-03-01T03:11:00;131.68;;;12.52;;
54743;SDS011;40639;53.170;6.728;2023-03-01T03:13:27;178.38;;;14.27;;
54743;SDS011;40639;53.170;6.728;2023-03-01T03:15:56;68.15;;;9.73;;
54743;SDS011;40639;53.170;6.728;2023-03-01T03:18:25;44.67;;;8.57;;
54743;SDS011;40639;53.170;6.728;2023-03-01T03:20:52;11.45;;;6.55;;
54743;SDS011;40639;53.170;6.728;2023-03-01T03:23:21;9.95;;;7.03;;
54743;SDS011;40639;53.170;6.728;2023-03-01T03:25:51;9.93;;;6.43;;
54743;SDS011;40639;53.170;6.728;2023-03-01T03:28:17;11.07;;;7.10;;
54743;SDS011;40639;53.170;6.728;2023-03-01T03:30:43;10.45;;;6.13;;
54743;SDS011;40639;53.170;6.728;2023-03-01T03:33:10;9.65;;;5.82;;
54743;SDS011;40639;53.170;6.728;2023-03-01T03:35:44;10.68;;;6.47;;
54743;SDS011;40639;53.170;6.728;2023-03-01T03:38:10;20.70;;;6.72;;
54743;SDS011;40639;53.170;6.728;2023-03-01T03:40:44;28.35;;;7.68;;
54743;SDS011;40639;53.170;6.728;2023-03-01T03:43:12;37.58;;;8.15;;
54743;SDS011;40639;53.170;6.728;2023-03-01T03:45:39;41.60;;;8.50;;
54743;SDS011;40639;53.170;6.728;2023-03-01T03:48:06;45.97;;;8.93;;
54743;SDS011;40639;53.170;6.728;2023-03-01T03:50:33;158.65;;;14.63;;
54743;SDS011;40639;53.170;6.728;2023-03-01T03:53:03;374.33;;;27.73;;
54743;SDS011;40639;53.170;6.728;2023-03-01T03:55:29;247.93;;;22.83;;
54743;SDS011;40639;53.170;6.728;2023-03-01T03:57:59;96.32;;;12.32;;
54743;SDS011;40639;53.170;6.728;2023-03-01T04:00:32;31.40;;;7.70;;
54743;SDS011;40639;53.170;6.728;2023-03-01T04:02:58;15.70;;;8.15;;
54743;SDS011;40639;53.170;6.728;2023-03-01T04:05:26;11.88;;;7.82;;
54743;SDS011;40639;53.170;6.728;2023-03-01T04:07:52;11.75;;;7.53;;
54743;SDS011;40639;53.170;6.728;2023-03-01T04:10:27;39.97;;;10.80;;
54743;SDS011;40639;53.170;6.728;2023-03-01T04:12:53;19.55;;;8.13;;
54743;SDS011;40639;53.170;6.728;2023-03-01T04:15:23;14.00;;;8.27;;
54743;SDS011;40639;53.170;6.728;2023-03-01T04:17:49;12.18;;;7.55;;
54743;SDS011;40639;53.170;6.728;2023-03-01T04:20:20;13.60;;;7.45;;
54743;SDS011;40639;53.170;6.728;2023-03-01T04:22:51;12.27;;;7.30;;
54743;SDS011;40639;53.170;6.728;2023-03-01T04:25:18;12.45;;;7.40;;
54743;SDS011;40639;53.170;6.728;2023-03-01T04:27:44;12.85;;;8.27;;
54743;SDS011;40639;53.170;6.728;2023-03-01T04:30:10;11.45;;;7.28;;
54743;SDS011;40639;53.170;6.728;2023-03-01T04:32:36;14.02;;;7.22;;
54743;SDS011;40639;53.170;6.728;2023-03-01T04:35:03;13.98;;;7.75;;
54743;SDS011;40639;53.170;6.728;2023-03-01T04:37:29;11.15;;;7.55;;
54743;SDS011;40639;53.170;6.728;2023-03-01T04:39:55;11.32;;;6.55;;
54743;SDS011;40639;53.170;6.728;2023-03-01T04:42:22;11.18;;;6.97;;
54743;SDS011;40639;53.170;6.728;2023-03-01T04:44:48;11.73;;;6.68;;
54743;SDS011;40639;53.170;6.728;2023-03-01T04:47:16;11.55;;;7.13;;
54743;SDS011;40639;53.170;6.728;2023-03-01T04:49:42;11.75;;;6.60;;
54743;SDS011;40639;53.170;6.728;2023-03-01T04:52:08;11.63;;;6.45;;
54743;SDS011;40639;53.170;6.728;2023-03-01T04:54:35;9.82;;;6.07;;
54743;SDS011;40639;53.170;6.728;2023-03-01T04:57:01;9.70;;;6.30;;
54743;SDS011;40639;53.170;6.728;2023-03-01T04:59:28;10.25;;;6.45;;
54743;SDS011;40639;53.170;6.728;2023-03-01T05:01:55;10.30;;;6.47;;
54743;SDS011;40639;53.170;6.728;2023-03-01T05:04:22;10.45;;;6.05;;
54743;SDS011;40639;53.170;6.728;2023-03-01T05:06:48;9.93;;;6.50;;
54743;SDS011;40639;53.170;6.728;2023-03-01T05:09:14;8.30;;;5.60;;
54743;SDS011;40639;53.170;6.728;2023-03-01T05:11:40;10.75;;;6.63;;
54743;SDS011;40639;53.170;6.728;2023-03-01T05:14:07;10.18;;;6.80;;
54743;SDS011;40639;53.170;6.728;2023-03-01T05:16:34;10.40;;;6.47;;
54743;SDS011;40639;53.170;6.728;2023-03-01T05:19:01;21.88;;;6.82;;
54743;SDS011;40639;53.170;6.728;2023-03-01T05:21:37;14.50;;;6.55;;
54743;SDS011;40639;53.170;6.728;2023-03-01T05:24:26;28.35;;;7.47;;
54743;SDS011;40639;53.170;6.728;2023-03-01T05:26:53;20.80;;;7.40;;
54743;SDS011;40639;53.170;6.728;2023-03-01T05:29:19;21.92;;;7.70;;
54743;SDS011;40639;53.170;6.728;2023-03-01T05:31:59;17.75;;;6.90;;
54743;SDS011;40639;53.170;6.728;2023-03-01T05:36:52;24.88;;;7.80;;
54743;SDS011;40639;53.170;6.728;2023-03-01T05:39:22;84.00;;;10.30;;
54743;SDS011;40639;53.170;6.728;2023-03-01T05:41:52;118.13;;;12.05;;
54743;SDS011;40639;53.170;6.728;2023-03-01T05:44:19;54.53;;;9.00;;
54743;SDS011;40639;53.170;6.728;2023-03-01T05:46:45;23.70;;;8.00;;
54743;SDS011;40639;53.170;6.728;2023-03-01T05:49:12;23.80;;;8.20;;
54743;SDS011;40639;53.170;6.728;2023-03-01T05:51:39;39.17;;;9.43;;
54743;SDS011;40639;53.170;6.728;2023-03-01T05:54:05;63.38;;;10.38;;
54743;SDS011;40639;53.170;6.728;2023-03-01T05:56:35;102.50;;;12.48;;
54743;SDS011;40639;53.170;6.728;2023-03-01T05:59:02;111.28;;;12.77;;
54743;SDS011;40639;53.170;6.728;2023-03-01T06:01:30;78.30;;;11.40;;
54743;SDS011;40639;53.170;6.728;2023-03-01T06:03:56;124.28;;;12.77;;
54743;SDS011;40639;53.170;6.728;2023-03-01T06:06:22;78.60;;;11.65;;
54743;SDS011;40639;53.170;6.728;2023-03-01T06:08:49;57.22;;;9.73;;
54743;SDS011;40639;53.170;6.728;2023-03-01T06:11:15;24.35;;;7.75;;
54743;SDS011;40639;53.170;6.728;2023-03-01T06:13:42;51.10;;;9.88;;
54743;SDS011;40639;53.170;6.728;2023-03-01T06:16:08;138.23;;;15.02;;
54743;SDS011;40639;53.170;6.728;2023-03-01T06:18:35;93.97;;;12.45;;
54743;SDS011;40639;53.170;6.728;2023-03-01T06:21:02;38.53;;;9.48;;
54743;SDS011;40639;53.170;6.728;2023-03-01T06:23:28;16.77;;;8.30;;
54743;SDS011;40639;53.170;6.728;2023-03-01T06:25:54;12.38;;;7.10;;
54743;SDS011;40639;53.170;6.728;2023-03-01T06:28:21;11.88;;;7.18;;
54743;SDS011;40639;53.170;6.728;2023-03-01T06:30:47;11.32;;;7.18;;
54743;SDS011;40639;53.170;6.728;2023-03-01T06:33:13;12.30;;;7.00;;
54743;SDS011;40639;53.170;6.728;2023-03-01T06:35:40;10.35;;;6.82;;
54743;SDS011;40639;53.170;6.728;2023-03-01T06:38:06;10.80;;;6.75;;
54743;SDS011;40639;53.170;6.728;2023-03-01T06:40:32;11.93;;;6.85;;
54743;SDS011;40639;53.170;6.728;2023-03-01T06:43:00;11.05;;;6.82;;
54743;SDS011;40639;53.170;6.728;2023-03-01T06:45:26;13.68;;;7.78;;
54743;SDS011;40639;53.170;6.728;2023-03-01T06:47:57;12.57;;;8.23;;
54743;SDS011;40639;53.170;6.728;2023-03-01T06:50:27;12.63;;;8.35;;
54743;SDS011;40639;53.170;6.728;2023-03-01T06:52:56;10.50;;;7.32;;
54743;SDS011;40639;53.170;6.728;2023-03-01T06:55:23;10.07;;;7.05;;
54743;SDS011;40639;53.170;6.728;2023-03-01T06:57:53;11.63;;;6.90;;
54743;SDS011;40639;53.170;6.728;2023-03-01T07:00:20;12.73;;;6.65;;
54743;SDS011;40639;53.170;6.728;2023-03-01T07:02:46;11.45;;;6.70;;
54743;SDS011;40639;53.170;6.728;2023-03-01T07:05:12;10.52;;;6.40;;
54743;SDS011;40639;53.170;6.728;2023-03-01T07:07:38;10.65;;;6.63;;
54743;SDS011;40639;53.170;6.728;2023-03-01T07:10:05;10.65;;;6.68;;
54743;SDS011;40639;53.170;6.728;2023-03-01T07:12:31;11.43;;;6.38;;
54743;SDS011;40639;53.170;6.728;2023-03-01T07:14:57;12.48;;;7.00;;
54743;SDS011;40639;53.170;6.728;2023-03-01T07:19:49;11.40;;;6.28;;
54743;SDS011;40639;53.170;6.728;2023-03-01T07:22:16;11.43;;;6.55;;
54743;SDS011;40639;53.170;6.728;2023-03-01T07:24:42;11.10;;;7.25;;
54743;SDS011;40639;53.170;6.728;2023-03-01T07:27:09;12.02;;;7.32;;
54743;SDS011;40639;53.170;6.728;2023-03-01T07:29:35;13.32;;;7.45;;
54743;SDS011;40639;53.170;6.728;2023-03-01T07:32:02;12.98;;;8.55;;
54743;SDS011;40639;53.170;6.728;2023-03-01T07:34:28;15.80;;;9.57;;
54743;SDS011;40639;53.170;6.728;2023-03-01T07:36:54;28.23;;;14.00;;
54743;SDS011;40639;53.170;6.728;2023-03-01T07:39:21;23.33;;;11.80;;
54743;SDS011;40639;53.170;6.728;2023-03-01T07:41:50;18.98;;;11.05;;
54743;SDS011;40639;53.170;6.728;2023-03-01T07:44:16;20.75;;;11.65;;
54743;SDS011;40639;53.170;6.728;2023-03-01T07:46:43;21.75;;;11.75;;
54743;SDS011;40639;53.170;6.728;2023-03-01T07:49:09;18.00;;;10.43;;
54743;SDS011;40639;53.170;6.728;2023-03-01T07:51:35;17.65;;;10.07;;
54743;SDS011;40639;53.170;6.728;2023-03-01T07:54:02;22.02;;;13.48;;
54743;SDS011;40639;53.170;6.728;2023-03-01T07:56:28;20.88;;;12.27;;
54743;SDS011;40639;53.170;6.728;2023-03-01T07:58:54;22.52;;;13.20;;
54743;SDS011;40639;53.170;6.728;2023-03-01T08:01:20;17.52;;;12.40;;
54743;SDS011;40639;53.170;6.728;2023-03-01T08:03:47;20.55;;;12.85;;
54743;SDS011;40639;53.170;6.728;2023-03-01T08:06:15;19.48;;;11.93;;
54743;SDS011;40639;53.170;6.728;2023-03-01T08:08:42;24.02;;;13.45;;
54743;SDS011;40639;53.170;6.728;2023-03-01T08:11:10;23.73;;;14.93;;
54743;SDS011;40639;53.170;6.728;2023-03-01T08:13:36;28.20;;;17.50;;
54743;SDS011;40639;53.170;6.728;2023-03-01T08:16:03;31.98;;;15.30;;
54743;SDS011;40639;53.170;6.728;2023-03-01T08:18:30;27.33;;;15.70;;
54743;SDS011;40639;53.170;6.728;2023-03-01T08:21:00;26.20;;;14.32;;
54743;SDS011;40639;53.170;6.728;2023-03-01T08:23:26;21.63;;;13.13;;
54743;SDS011;40639;53.170;6.728;2023-03-01T08:25:52;20.00;;;12.75;;
54743;SDS011;40639;53.170;6.728;2023-03-01T08:28:19;24.77;;;14.80;;
54743;SDS011;40639;53.170;6.728;2023-03-01T08:30:45;26.20;;;14.48;;
54743;SDS011;40639;53.170;6.728;2023-03-01T08:33:11;23.95;;;14.30;;
54743;SDS011;40639;53.170;6.728;2023-03-01T08:35:37;26.50;;;14.35;;
54743;SDS011;40639;53.170;6.728;2023-03-01T08:38:03;25.08;;;14.07;;
54743;SDS011;40639;53.170;6.728;2023-03-01T08:40:29;24.35;;;15.10;;
54743;SDS011;40639;53.170;6.728;2023-03-01T08:42:57;26.08;;;15.20;;
54743;SDS011;40639;53.170;6.728;2023-03-01T08:45:23;25.17;;;14.60;;
54743;SDS011;40639;53.170;6.728;2023-03-01T08:47:51;26.65;;;14.98;;
54743;SDS011;40639;53.170;6.728;2023-03-01T08:50:18;27.13;;;15.00;;
54743;SDS011;40639;53.170;6.728;2023-03-01T08:52:44;27.30;;;14.43;;
54743;SDS011;40639;53.170;6.728;2023-03-01T08:55:10;25.05;;;14.85;;
54743;SDS011;40639;53.170;6.728;2023-03-01T08:57:36;27.60;;;15.68;;
54743;SDS011;40639;53.170;6.728;2023-03-01T09:02:33;28.08;;;15.13;;
54743;SDS011;40639;53.170;6.728;2023-03-01T09:04:59;24.95;;;15.45;;
54743;SDS011;40639;53.170;6.728;2023-03-01T09:07:26;29.80;;;16.75;;
54743;SDS011;40639;53.170;6.728;2023-03-01T09:09:55;27.42;;;15.63;;
54743;SDS011;40639;53.170;6.728;2023-03-01T09:12:21;26.98;;;15.32;;
54743;SDS011;40639;53.170;6.728;2023-03-01T09:14:47;28.30;;;16.63;;
54743;SDS011;40639;53.170;6.728;2023-03-01T09:17:14;26.08;;;15.10;;
54743;SDS011;40639;53.170;6.728;2023-03-01T09:19:40;25.60;;;16.10;;
54743;SDS011;40639;53.170;6.728;2023-03-01T09:22:06;26.02;;;16.27;;
54743;SDS011;40639;53.170;6.728;2023-03-01T09:24:33;26.67;;;15.85;;
54743;SDS011;40639;53.170;6.728;2023-03-01T09:27:02;25.52;;;16.52;;
54743;SDS011;40639;53.170;6.728;2023-03-01T09:29:34;26.23;;;15.80;;
54743;SDS011;40639;53.170;6.728;2023-03-01T09:32:01;28.33;;;15.40;;
54743;SDS011;40639;53.170;6.728;2023-03-01T09:34:27;26.67;;;16.65;;
54743;SDS011;40639;53.170;6.728;2023-03-01T09:36:53;24.63;;;15.60;;
54743;SDS011;40639;53.170;6.728;2023-03-01T09:39:19;25.13;;;14.70;;
54743;SDS011;40639;53.170;6.728;2023-03-01T09:41:47;24.58;;;15.73;;
54743;SDS011;40639;53.170;6.728;2023-03-01T09:46:53;30.23;;;16.65;;
54743;SDS011;40639;53.170;6.728;2023-03-01T09:49:23;27.55;;;15.40;;
54743;SDS011;40639;53.170;6.728;2023-03-01T09:52:36;26.30;;;14.90;;
54743;SDS011;40639;53.170;6.728;2023-03-01T09:54:36;22.65;;;13.50;;
54743;SDS011;40639;53.170;6.728;2023-03-01T10:07:52;20.75;;;12.98;;
54743;SDS011;40639;53.170;6.728;2023-03-01T10:10:34;20.15;;;11.40;;
54743;SDS011;40639;53.170;6.728;2023-03-01T10:13:09;22.35;;;11.98;;
54743;SDS011;40639;53.170;6.728;2023-03-01T10:15:39;19.42;;;11.65;;
54743;SDS011;40639;53.170;6.728;2023-03-01T10:18:18;23.67;;;13.23;;
54743;SDS011;40639;53.170;6.728;2023-03-01T10:20:48;23.80;;;13.13;;
54743;SDS011;40639;53.170;6.728;2023-03-01T10:23:18;20.67;;;12.85;;
54743;SDS011;40639;53.170;6.728;2023-03-01T10:25:52;20.40;;;12.52;;
54743;SDS011;40639;53.170;6.728;2023-03-01T10:31:06;20.98;;;12.20;;
54743;SDS011;40639;53.170;6.728;2023-03-01T10:33:37;18.85;;;11.82;;
54743;SDS011;40639;53.170;6.728;2023-03-01T10:36:05;16.50;;;10.95;;
54743;SDS011;40639;53.170;6.728;2023-03-01T10:38:43;21.27;;;12.57;;
54743;SDS011;40639;53.170;6.728;2023-03-01T10:41:12;18.75;;;11.60;;
54743;SDS011;40639;53.170;6.728;2023-03-01T10:43:46;18.02;;;11.68;;
54743;SDS011;40639;53.170;6.728;2023-03-01T10:46:29;17.95;;;11.55;;
54743;SDS011;40639;53.170;6.728;2023-03-01T10:51:31;17.70;;;11.75;;
54743;SDS011;40639;53.170;6.728;2023-03-01T10:53:58;19.30;;;11.80;;
54743;SDS011;40639;53.170;6.728;2023-03-01T10:56:27;19.13;;;11.30;;
54743;SDS011;40639;53.170;6.728;2023-03-01T10:58:59;19.20;;;11.57;;
54743;SDS011;40639;53.170;6.728;2023-03-01T11:01:29;19.35;;;12.60;;
54743;SDS011;40639;53.170;6.728;2023-03-01T11:06:29;18.55;;;11.57;;
54743;SDS011;40639;53.170;6.728;2023-03-01T11:08:55;19.67;;;11.82;;
54743;SDS011;40639;53.170;6.728;2023-03-01T11:16:41;18.85;;;11.30;;
54743;SDS011;40639;53.170;6.728;2023-03-01T11:21:38;18.02;;;11.30;;
54743;SDS011;40639;53.170;6.728;2023-03-01T11:24:40;16.02;;;10.70;;
54743;SDS011;40639;53.170;6.728;2023-03-01T11:27:21;17.20;;;10.90;;
54743;SDS011;40639;53.170;6.728;2023-03-01T11:29:51;20.13;;;11.23;;
54743;SDS011;40639;53.170;6.728;2023-03-01T11:32:18;20.65;;;10.48;;
54743;SDS011;40639;53.170;6.728;2023-03-01T11:34:56;18.02;;;10.65;;
54743;SDS011;40639;53.170;6.728;2023-03-01T11:40:17;15.15;;;10.52;;
54743;SDS011;40639;53.170;6.728;2023-03-01T11:50:57;23.17;;;9.73;;
54743;SDS011;40639;53.170;6.728;2023-03-01T11:53:28;16.80;;;9.52;;
54743;SDS011;40639;53.170;6.728;2023-03-01T11:56:04;13.75;;;8.90;;
54743;SDS011;40639;53.170;6.728;2023-03-01T12:14:11;14.40;;;8.82;;
54743;SDS011;40639;53.170;6.728;2023-03-01T12:19:37;14.00;;;8.38;;
54743;SDS011;40639;53.170;6.728;2023-03-01T12:35:26;14.95;;;8.20;;
54743;SDS011;40639;53.170;6.728;2023-03-01T12:40:35;14.60;;;8.02;;
54743;SDS011;40639;53.170;6.728;2023-03-01T12:43:22;15.40;;;8.93;;
54743;SDS011;40639;53.170;6.728;2023-03-01T12:50:52;12.90;;;8.70;;
54743;SDS011;40639;53.170;6.728;2023-03-01T12:53:25;12.30;;;8.15;;
54743;SDS011;40639;53.170;6.728;2023-03-01T12:55:53;15.55;;;8.55;;
54743;SDS011;40639;53.170;6.728;2023-03-01T13:03:55;12.77;;;8.40;;
54743;SDS011;40639;53.170;6.728;2023-03-01T13:11:49;17.08;;;9.02;;
54743;SDS011;40639;53.170;6.728;2023-03-01T13:16:51;17.00;;;8.85;;
54743;SDS011;40639;53.170;6.728;2023-03-01T13:21:47;13.60;;;9.02;;
54743;SDS011;40639;53.170;6.728;2023-03-01T13:29:44;12.57;;;7.83;;
54743;SDS011;40639;53.170;6.728;2023-03-01T13:32:24;15.20;;;8.85;;
54743;SDS011;40639;53.170;6.728;2023-03-01T13:35:00;14.23;;;8.40;;
54743;SDS011;40639;53.170;6.728;2023-03-01T13:37:28;27.70;;;10.68;;
54743;SDS011;40639;53.170;6.728;2023-03-01T13:39:55;17.52;;;9.13;;
54743;SDS011;40639;53.170;6.728;2023-03-01T13:44:55;66.00;;;13.70;;
54743;SDS011;40639;53.170;6.728;2023-03-01T13:47:21;18.83;;;9.20;;
54743;SDS011;40639;53.170;6.728;2023-03-01T13:54:51;14.60;;;9.50;;
54743;SDS011;40639;53.170;6.728;2023-03-01T13:57:20;13.82;;;8.93;;
54743;SDS011;40639;53.170;6.728;2023-03-01T13:59:48;14.73;;;9.80;;
54743;SDS011;40639;53.170;6.728;2023-03-01T14:02:14;14.82;;;9.80;;
54743;SDS011;40639;53.170;6.728;2023-03-01T14:04:41;15.43;;;9.80;;
54743;SDS011;40639;53.170;6.728;2023-03-01T14:07:19;15.20;;;9.88;;
54743;SDS011;40639;53.170;6.728;2023-03-01T14:09:54;14.95;;;10.38;;
54743;SDS011;40639;53.170;6.728;2023-03-01T14:18:04;15.18;;;9.82;;
54743;SDS011;40639;53.170;6.728;2023-03-01T14:20:41;14.55;;;9.48;;
54743;SDS011;40639;53.170;6.728;2023-03-01T14:23:10;14.73;;;9.60;;
54743;SDS011;40639;53.170;6.728;2023-03-01T14:25:37;14.57;;;9.75;;
54743;SDS011;40639;53.170;6.728;2023-03-01T14:28:10;17.10;;;11.07;;
54743;SDS011;40639;53.170;6.728;2023-03-01T14:30:46;17.00;;;10.43;;
54743;SDS011;40639;53.170;6.728;2023-03-01T14:33:32;14.32;;;10.32;;
54743;SDS011;40639;53.170;6.728;2023-03-01T14:36:03;17.35;;;12.18;;
54743;SDS011;40639;53.170;6.728;2023-03-01T14:41:01;16.13;;;10.02;;
54743;SDS011;40639;53.170;6.728;2023-03-01T14:43:27;15.75;;;10.57;;
54743;SDS011;40639;53.170;6.728;2023-03-01T14:45:55;15.18;;;10.68;;
54743;SDS011;40639;53.170;6.728;2023-03-01T14:48:21;15.95;;;11.38;;
54743;SDS011;40639;53.170;6.728;2023-03-01T14:50:48;15.73;;;9.52;;
54743;SDS011;40639;53.170;6.728;2023-03-01T14:53:18;16.92;;;10.23;;
54743;SDS011;40639;53.170;6.728;2023-03-01T14:55:50;15.98;;;11.20;;
54743;SDS011;40639;53.170;6.728;2023-03-01T14:58:22;15.10;;;11.13;;
54743;SDS011;40639;53.170;6.728;2023-03-01T15:00:50;14.95;;;10.40;;
54743;SDS011;40639;53.170;6.728;2023-03-01T15:03:23;15.43;;;10.73;;
54743;SDS011;40639;53.170;6.728;2023-03-01T15:05:50;15.05;;;9.95;;
54743;SDS011;40639;53.170;6.728;2023-03-01T15:08:18;16.92;;;10.52;;
54743;SDS011;40639;53.170;6.728;2023-03-01T15:10:55;15.60;;;11.00;;
54743;SDS011;40639;53.170;6.728;2023-03-01T15:13:23;16.13;;;10.05;;
54743;SDS011;40639;53.170;6.728;2023-03-01T15:15:50;15.93;;;9.45;;
54743;SDS011;40639;53.170;6.728;2023-03-01T15:18:18;15.25;;;10.55;;
54743;SDS011;40639;53.170;6.728;2023-03-01T15:20:45;16.58;;;11.07;;
54743;SDS011;40639;53.170;6.728;2023-03-01T15:25:51;17.42;;;10.35;;
54743;SDS011;40639;53.170;6.728;2023-03-01T15:28:22;14.23;;;10.07;;
54743;SDS011;40639;53.170;6.728;2023-03-01T15:31:32;16.25;;;10.75;;
54743;SDS011;40639;53.170;6.728;2023-03-01T15:33:38;15.35;;;10.20;;
54743;SDS011;40639;53.170;6.728;2023-03-01T15:38:58;15.80;;;10.15;;
54743;SDS011;40639;53.170;6.728;2023-03-01T15:41:38;15.70;;;10.27;;
54743;SDS011;40639;53.170;6.728;2023-03-01T15:44:23;15.18;;;9.88;;
54743;SDS011;40639;53.170;6.728;2023-03-01T15:46:50;15.93;;;10.32;;
54743;SDS011;40639;53.170;6.728;2023-03-01T15:49:26;16.67;;;10.60;;
54743;SDS011;40639;53.170;6.728;2023-03-01T15:51:53;17.73;;;10.52;;
54743;SDS011;40639;53.170;6.728;2023-03-01T15:54:21;15.55;;;10.45;;
54743;SDS011;40639;53.170;6.728;2023-03-01T15:56:48;15.40;;;10.20;;
54743;SDS011;40639;53.170;6.728;2023-03-01T15:59:14;16.20;;;10.57;;
54743;SDS011;40639;53.170;6.728;2023-03-01T16:01:40;15.93;;;10.63;;
54743;SDS011;40639;53.170;6.728;2023-03-01T16:04:09;15.40;;;9.75;;
54743;SDS011;40639;53.170;6.728;2023-03-01T16:06:37;14.38;;;9.70;;
54743;SDS011;40639;53.170;6.728;2023-03-01T16:09:04;17.77;;;9.60;;
54743;SDS011;40639;53.170;6.728;2023-03-01T16:11:30;15.18;;;9.77;;
54743;SDS011;40639;53.170;6.728;2023-03-01T16:13:59;14.60;;;9.38;;
54743;SDS011;40639;53.170;6.728;2023-03-01T16:16:25;14.65;;;9.55;;
54743;SDS011;40639;53.170;6.728;2023-03-01T16:18:51;15.68;;;9.80;;
54743;SDS011;40639;53.170;6.728;2023-03-01T16:21:21;13.52;;;8.88;;
54743;SDS011;40639;53.170;6.728;2023-03-01T16:23:48;15.43;;;9.25;;
54743;SDS011;40639;53.170;6.728;2023-03-01T16:26:14;13.82;;;9.20;;
54743;SDS011;40639;53.170;6.728;2023-03-01T16:28:41;15.13;;;9.75;;
54743;SDS011;40639;53.170;6.728;2023-03-01T16:31:08;13.07;;;8.73;;
54743;SDS011;40639;53.170;6.728;2023-03-01T16:33:34;14.18;;;9.40;;
54743;SDS011;40639;53.170;6.728;2023-03-01T16:36:10;16.02;;;10.05;;
54743;SDS011;40639;53.170;6.728;2023-03-01T16:41:03;14.77;;;9.05;;
54743;SDS011;40639;53.170;6.728;2023-03-01T16:43:30;16.75;;;10.02;;
54743;SDS011;40639;53.170;6.728;2023-03-01T16:45:57;15.00;;;9.88;;
54743;SDS011;40639;53.170;6.728;2023-03-01T16:48:24;14.55;;;9.45;;
54743;SDS011;40639;53.170;6.728;2023-03-01T16:51:00;15.02;;;10.02;;
54743;SDS011;40639;53.170;6.728;2023-03-01T16:53:27;18.30;;;10.20;;
54743;SDS011;40639;53.170;6.728;2023-03-01T16:55:56;15.55;;;9.70;;
54743;SDS011;40639;53.170;6.728;2023-03-01T16:58:23;16.80;;;10.90;;
54743;SDS011;40639;53.170;6.728;2023-03-01T17:00:55;15.80;;;9.57;;
54743;SDS011;40639;53.170;6.728;2023-03-01T17:03:24;14.07;;;9.32;;